createdAt,value
2024-02-13T00:01:32.393Z,100.00
2024-02-13T00:04:00.580Z,100.00
2024-02-13T00:06:28.649Z,100.00
2024-02-13T00:08:56.833Z,100.00
2024-02-13T00:11:26.604Z,100.00
2024-02-13T00:13:54.667Z,100.00
2024-02-13T00:16:30.376Z,100.00
2024-02-13T00:19:02.297Z,100.00
2024-02-13T00:21:30.606Z,100.00
2024-02-13T00:23:58.907Z,100.00
2024-02-13T00:26:28.728Z,100.00
2024-02-13T00:28:56.846Z,100.00
2024-02-13T00:31:25.798Z,100.00
2024-02-13T00:34:13.898Z,100.00
2024-02-13T00:36:41.902Z,100.00
2024-02-13T00:39:09.882Z,100.00
2024-02-13T00:41:39.964Z,100.00
2024-02-13T00:44:17.794Z,100.00
2024-02-13T00:46:46.313Z,100.00
2024-02-13T00:49:14.915Z,100.00
2024-02-13T00:51:43.480Z,100.00
2024-02-13T00:54:15.010Z,100.00
2024-02-13T00:56:45.176Z,100.00
2024-02-13T00:59:14.181Z,100.00
2024-02-13T01:01:42.479Z,100.00
2024-02-13T01:04:10.445Z,100.00
2024-02-13T01:06:38.524Z,100.00
2024-02-13T01:09:06.902Z,100.00
2024-02-13T01:11:36.769Z,100.00
2024-02-13T01:14:06.569Z,100.00
2024-02-13T01:16:34.589Z,100.00
2024-02-13T01:19:04.741Z,100.00
2024-02-13T01:21:32.950Z,100.00
2024-02-13T01:24:00.980Z,100.00
2024-02-13T01:26:30.440Z,100.00
2024-02-13T01:28:58.672Z,100.00
2024-02-13T01:31:28.148Z,100.00
2024-02-13T01:33:57.241Z,100.00
2024-02-13T01:36:25.414Z,100.00
2024-02-13T01:38:54.445Z,100.00
2024-02-13T01:41:22.926Z,100.00
2024-02-13T01:43:53.925Z,100.00
2024-02-13T01:46:22.034Z,100.00
2024-02-13T01:48:59.870Z,100.00
2024-02-13T01:51:30.242Z,100.00
2024-02-13T01:54:01.138Z,100.00
2024-02-13T01:56:31.097Z,100.00
2024-02-13T01:58:59.585Z,100.00
2024-02-13T02:01:30.877Z,100.00
2024-02-13T02:04:01.844Z,100.00
2024-02-13T02:06:30.470Z,100.00
2024-02-13T02:08:59.247Z,100.00
2024-02-13T02:11:27.406Z,100.00
2024-02-13T02:13:56.609Z,100.00
2024-02-13T02:16:45.222Z,100.00
2024-02-13T02:19:14.780Z,100.00
2024-02-13T02:21:43.493Z,100.00
2024-02-13T02:24:11.522Z,100.00
2024-02-13T02:26:53.915Z,100.00
2024-02-13T02:29:25.126Z,100.00
2024-02-13T02:31:53.127Z,100.00
2024-02-13T02:34:21.867Z,100.00
2024-02-13T02:36:51.957Z,100.00
2024-02-13T02:39:20.225Z,100.00
2024-02-13T02:41:52.186Z,100.00
2024-02-13T02:44:21.790Z,100.00
2024-02-13T02:46:49.963Z,100.00
2024-02-13T02:49:18.344Z,100.00
2024-02-13T02:51:49.304Z,100.00
2024-02-13T02:54:17.392Z,100.00
2024-02-13T02:56:45.910Z,100.00
2024-02-13T02:59:13.984Z,100.00
2024-02-13T03:01:43.440Z,100.00
2024-02-13T03:04:11.846Z,100.00
2024-02-13T03:06:42.006Z,100.00
2024-02-13T03:09:10.544Z,100.00
2024-02-13T03:11:38.546Z,100.00
2024-02-13T03:14:06.643Z,100.00
2024-02-13T03:16:36.114Z,100.00
2024-02-13T03:19:08.152Z,100.00
2024-02-13T03:21:38.711Z,100.00
2024-02-13T03:24:07.361Z,100.00
2024-02-13T03:26:35.878Z,100.00
2024-02-13T03:29:23.981Z,100.00
2024-02-13T03:31:51.912Z,100.00
2024-02-13T03:34:21.303Z,100.00
2024-02-13T03:36:50.418Z,100.00
2024-02-13T03:39:18.413Z,100.00
2024-02-13T03:41:47.833Z,100.00
2024-02-13T03:44:16.264Z,100.00
2024-02-13T03:46:45.304Z,100.00
2024-02-13T03:49:13.358Z,100.00
2024-02-13T03:51:43.491Z,100.00
2024-02-13T03:54:11.734Z,100.00
2024-02-13T03:56:40.456Z,100.00
2024-02-13T03:59:11.467Z,100.00
2024-02-13T04:01:40.853Z,100.00
2024-02-13T04:04:09.550Z,100.00
2024-02-13T04:06:38.085Z,100.00
2024-02-13T04:09:08.690Z,100.00
2024-02-13T04:11:37.213Z,100.00
2024-02-13T04:14:05.932Z,100.00
2024-02-13T04:16:33.959Z,100.00
2024-02-13T04:19:02.090Z,100.00
2024-02-13T04:21:30.090Z,100.00
2024-02-13T04:23:58.168Z,100.00
2024-02-13T04:26:36.276Z,100.00
2024-02-13T04:29:05.607Z,100.00
2024-02-13T04:31:33.796Z,100.00
2024-02-13T04:34:02.072Z,100.00
2024-02-13T04:36:30.392Z,100.00
2024-02-13T04:38:59.514Z,100.00
2024-02-13T04:41:28.977Z,100.00
2024-02-13T04:43:57.023Z,100.00
2024-02-13T04:46:26.793Z,100.00
2024-02-13T04:48:55.400Z,100.00
2024-02-13T04:51:25.031Z,100.00
2024-02-13T04:53:53.356Z,100.00
2024-02-13T04:56:21.824Z,100.00
2024-02-13T04:58:56.649Z,100.00
2024-02-13T05:01:25.644Z,100.00
2024-02-13T05:04:11.253Z,100.00
2024-02-13T05:06:56.528Z,100.00
2024-02-13T05:09:25.158Z,100.00
2024-02-13T05:11:53.263Z,100.00
2024-02-13T05:14:22.855Z,100.00
2024-02-13T05:16:50.950Z,100.00
2024-02-13T05:19:19.932Z,100.00
2024-02-13T05:21:48.017Z,100.00
2024-02-13T05:24:16.974Z,100.00
2024-02-13T05:26:47.503Z,100.00
2024-02-13T05:29:15.914Z,100.00
2024-02-13T05:31:46.069Z,100.00
2024-02-13T05:34:14.234Z,100.00
2024-02-13T05:36:42.181Z,100.00
2024-02-13T05:39:10.148Z,100.00
2024-02-13T05:41:38.380Z,100.00
2024-02-13T05:44:06.534Z,100.00
2024-02-13T05:46:38.247Z,100.00
2024-02-13T05:49:07.568Z,100.00
2024-02-13T05:51:35.640Z,100.00
2024-02-13T05:54:05.957Z,100.00
2024-02-13T05:56:34.311Z,100.00
2024-02-13T05:59:04.251Z,100.00
2024-02-13T06:01:32.808Z,100.00
2024-02-13T06:04:02.792Z,100.00
2024-02-13T06:06:35.993Z,100.00
2024-02-13T06:09:04.220Z,100.00
2024-02-13T06:11:35.693Z,100.00
2024-02-13T06:14:03.694Z,100.00
2024-02-13T06:16:31.876Z,100.00
2024-02-13T06:19:02.890Z,100.00
2024-02-13T06:21:32.308Z,100.00
2024-02-13T06:24:00.985Z,100.00
2024-02-13T06:26:29.403Z,100.00
2024-02-13T06:28:57.533Z,100.00
2024-02-13T06:31:25.660Z,100.00
2024-02-13T06:33:53.969Z,100.00
2024-02-13T06:36:22.190Z,100.00
2024-02-13T06:38:51.833Z,100.00
2024-02-13T06:41:19.963Z,100.00
2024-02-13T06:43:48.549Z,100.00
2024-02-13T06:46:18.053Z,100.00
2024-02-13T06:48:47.095Z,100.00
2024-02-13T06:51:15.227Z,100.00
2024-02-13T06:53:43.997Z,100.00
2024-02-13T06:56:15.732Z,100.00
2024-02-13T06:58:44.142Z,100.00
2024-02-13T07:01:14.116Z,100.00
2024-02-13T07:03:42.868Z,100.00
2024-02-13T07:06:13.123Z,100.00
2024-02-13T07:08:41.528Z,100.00
2024-02-13T07:11:09.622Z,100.00
2024-02-13T07:13:47.642Z,100.00
2024-02-13T07:16:15.972Z,100.00
2024-02-13T07:18:44.291Z,100.00
2024-02-13T07:21:12.480Z,100.00
2024-02-13T07:23:43.608Z,100.00
2024-02-13T07:26:12.804Z,100.00
2024-02-13T07:28:41.496Z,100.00
2024-02-13T07:31:12.247Z,100.00
2024-02-13T07:33:43.249Z,100.00
2024-02-13T07:36:12.465Z,100.00
2024-02-13T07:38:40.629Z,100.00
2024-02-13T07:41:09.962Z,100.00
2024-02-13T07:43:37.947Z,100.00
2024-02-13T07:46:07.010Z,100.00
2024-02-13T07:48:54.735Z,100.00
2024-02-13T07:51:23.119Z,100.00
2024-02-13T07:53:51.351Z,100.00
2024-02-13T07:56:21.571Z,100.00
2024-02-13T07:58:49.576Z,100.00
2024-02-13T08:01:23.554Z,100.00
2024-02-13T08:03:51.787Z,100.00
2024-02-13T08:06:21.384Z,100.00
2024-02-13T08:08:51.230Z,100.00
2024-02-13T08:11:19.662Z,100.00
2024-02-13T08:13:47.723Z,100.00
2024-02-13T08:16:16.139Z,100.00
2024-02-13T08:18:44.574Z,100.00
2024-02-13T08:21:13.655Z,100.00
2024-02-13T08:23:43.654Z,100.00
2024-02-13T08:26:12.040Z,100.00
2024-02-13T08:28:43.341Z,100.00
2024-02-13T08:31:11.408Z,100.00
2024-02-13T08:33:41.671Z,100.00
2024-02-13T08:36:10.841Z,100.00
2024-02-13T08:38:42.098Z,100.00
2024-02-13T08:41:13.811Z,100.00
2024-02-13T08:43:41.996Z,100.00
2024-02-13T08:46:10.133Z,100.00
2024-02-13T08:48:39.614Z,100.00
2024-02-13T08:51:08.032Z,100.00
2024-02-13T08:53:36.598Z,100.00
2024-02-13T08:56:05.955Z,100.00
2024-02-13T08:58:36.096Z,100.00
2024-02-13T09:01:04.539Z,100.00
2024-02-13T09:03:33.684Z,100.00
2024-02-13T09:06:05.797Z,100.00
2024-02-13T09:08:35.352Z,100.00
2024-02-13T09:11:03.868Z,100.00
2024-02-13T09:13:31.946Z,100.00
2024-02-13T09:16:01.449Z,100.00
2024-02-13T09:18:29.840Z,100.00
2024-02-13T09:20:59.945Z,100.00
2024-02-13T09:23:31.466Z,100.00
2024-02-13T09:26:00.480Z,100.00
2024-02-13T09:28:29.109Z,100.00
2024-02-13T09:30:57.129Z,100.00
2024-02-13T09:33:27.335Z,100.00
2024-02-13T09:35:56.059Z,100.00
2024-02-13T09:38:24.601Z,100.00
2024-02-13T09:40:52.852Z,100.00
2024-02-13T09:43:20.975Z,100.00
2024-02-13T09:45:51.177Z,100.00
2024-02-13T09:48:23.266Z,100.00
2024-02-13T09:50:54.087Z,100.00
2024-02-13T09:53:27.137Z,100.00
2024-02-13T09:55:55.738Z,100.00
2024-02-13T09:58:24.240Z,100.00
2024-02-13T10:00:53.762Z,100.00
2024-02-13T10:03:22.815Z,100.00
2024-02-13T10:05:53.688Z,100.00
2024-02-13T10:08:28.294Z,100.00
2024-02-13T10:11:02.037Z,100.00
2024-02-13T10:13:36.613Z,100.00
2024-02-13T10:16:06.836Z,100.00
2024-02-13T10:18:36.999Z,100.00
2024-02-13T10:21:09.227Z,100.00
2024-02-13T10:23:37.401Z,100.00
2024-02-13T10:26:08.973Z,100.00
2024-02-13T10:28:42.121Z,100.00
2024-02-13T10:31:10.940Z,100.00
2024-02-13T10:33:43.717Z,100.00
2024-02-13T10:36:13.168Z,100.00
2024-02-13T10:38:45.301Z,100.00
2024-02-13T10:41:20.854Z,100.00
2024-02-13T10:43:52.940Z,100.00
2024-02-13T10:46:24.442Z,100.00
2024-02-13T10:48:59.091Z,100.00
2024-02-13T10:51:31.227Z,100.00
2024-02-13T10:54:05.624Z,100.00
2024-02-13T10:56:36.165Z,100.00
2024-02-13T10:59:04.630Z,100.00
2024-02-13T11:01:36.301Z,100.00
2024-02-13T11:04:05.133Z,100.00
2024-02-13T11:06:35.911Z,100.00
2024-02-13T11:09:13.162Z,100.00
2024-02-13T11:11:45.203Z,100.00
2024-02-13T11:14:18.825Z,100.00
2024-02-13T11:16:53.785Z,100.00
2024-02-13T11:19:45.855Z,100.00
2024-02-13T11:22:17.357Z,100.00
2024-02-13T11:25:10.215Z,100.00
2024-02-13T11:28:03.322Z,100.00
2024-02-13T11:30:31.817Z,100.00
2024-02-13T11:33:03.445Z,100.00
2024-02-13T11:35:33.299Z,100.00
2024-02-13T11:38:13.072Z,100.00
2024-02-13T11:40:42.168Z,100.00
2024-02-13T11:43:23.429Z,99.39
2024-02-13T11:45:51.707Z,96.92
2024-02-13T11:48:24.877Z,91.00
2024-02-13T11:50:53.300Z,86.92
2024-02-13T11:53:23.269Z,77.18
2024-02-13T11:55:51.887Z,73.56
2024-02-13T11:58:22.777Z,78.82
2024-02-13T12:00:58.353Z,85.08
2024-02-13T12:03:27.021Z,86.38
2024-02-13T12:05:56.424Z,87.63
2024-02-13T12:08:28.485Z,87.00
2024-02-13T12:10:59.379Z,86.37
2024-02-13T12:13:27.635Z,86.65
2024-02-13T12:15:57.162Z,79.88
2024-02-13T12:18:25.452Z,80.19
2024-02-13T12:20:53.645Z,81.36
2024-02-13T12:23:27.969Z,80.84
2024-02-13T12:26:07.309Z,82.50
2024-02-13T12:28:37.725Z,83.00
2024-02-13T12:31:07.300Z,82.78
2024-02-13T12:33:37.894Z,81.23
2024-02-13T12:36:09.176Z,78.85
2024-02-13T12:38:38.430Z,72.56
2024-02-13T12:41:08.889Z,68.73
2024-02-13T12:43:37.391Z,67.28
2024-02-13T12:46:06.540Z,66.06
2024-02-13T12:48:40.609Z,64.68
2024-02-13T12:51:10.765Z,62.45
2024-02-13T12:53:42.997Z,60.73
2024-02-13T12:56:13.125Z,57.86
2024-02-13T12:58:43.468Z,53.58
2024-02-13T13:01:12.002Z,56.80
2024-02-13T13:03:40.501Z,61.25
2024-02-13T13:06:12.601Z,63.14
2024-02-13T13:08:43.274Z,66.38
2024-02-13T13:11:12.906Z,62.30
2024-02-13T13:13:41.657Z,59.29
2024-02-13T13:16:09.815Z,61.59
2024-02-13T13:18:39.646Z,60.81
2024-02-13T13:21:09.782Z,60.55
2024-02-13T13:23:39.068Z,61.14
2024-02-13T13:26:09.370Z,58.55
2024-02-13T13:28:40.176Z,61.48
2024-02-13T13:31:09.967Z,62.49
2024-02-13T13:33:38.763Z,65.32
2024-02-13T13:36:08.786Z,67.11
2024-02-13T13:38:37.626Z,66.99
2024-02-13T13:41:06.044Z,65.80
2024-02-13T13:43:34.552Z,64.16
2024-02-13T13:46:03.999Z,61.88
2024-02-13T13:48:35.815Z,63.76
2024-02-13T13:51:04.802Z,65.28
2024-02-13T13:53:33.102Z,64.55
2024-02-13T13:56:01.374Z,65.29
2024-02-13T13:58:30.849Z,66.17
2024-02-13T14:00:58.938Z,67.25
2024-02-13T14:03:29.501Z,67.24
2024-02-13T14:05:57.931Z,68.41
2024-02-13T14:08:26.028Z,69.40
2024-02-13T14:10:56.516Z,69.70
2024-02-13T14:13:25.883Z,71.52
2024-02-13T14:15:53.970Z,72.86
2024-02-13T14:18:26.085Z,74.00
2024-02-13T14:20:55.651Z,74.25
2024-02-13T14:23:24.797Z,75.50
2024-02-13T14:25:53.093Z,77.18
2024-02-13T14:28:21.171Z,76.79
2024-02-13T14:30:49.427Z,79.00
2024-02-13T14:33:17.858Z,77.34
2024-02-13T14:35:48.254Z,78.55
2024-02-13T14:38:19.597Z,80.28
2024-02-13T14:40:48.553Z,78.22
2024-02-13T14:43:17.217Z,79.16
2024-02-13T14:45:47.067Z,77.01
2024-02-13T14:48:16.327Z,75.86
2024-02-13T14:50:48.115Z,78.58
2024-02-13T14:53:24.968Z,72.89
2024-02-13T14:55:53.164Z,74.35
2024-02-13T14:58:31.436Z,78.23
2024-02-13T15:01:08.331Z,79.59
2024-02-13T15:03:36.616Z,78.66
2024-02-13T15:06:04.954Z,78.04
2024-02-13T15:08:35.757Z,76.96
2024-02-13T15:11:04.786Z,77.95
2024-02-13T15:13:35.165Z,79.48
2024-02-13T15:16:05.101Z,80.73
2024-02-13T15:18:45.489Z,80.47
2024-02-13T15:21:14.224Z,81.42
2024-02-13T15:23:43.669Z,82.55
2024-02-13T15:26:11.973Z,83.43
2024-02-13T15:28:40.895Z,82.53
2024-02-13T15:31:08.927Z,82.48
2024-02-13T15:33:43.493Z,83.30
2024-02-13T15:36:32.071Z,84.80
2024-02-13T15:39:19.099Z,84.98
2024-02-13T15:42:05.518Z,87.66
2024-02-13T15:44:51.517Z,85.36
2024-02-13T15:47:19.681Z,85.59
2024-02-13T15:49:50.862Z,86.82
2024-02-13T15:52:19.308Z,86.68
2024-02-13T15:54:50.276Z,86.81
2024-02-13T15:57:19.350Z,89.33
2024-02-13T15:59:47.347Z,88.19
2024-02-13T16:02:18.909Z,87.80
2024-02-13T16:04:47.958Z,88.33
2024-02-13T16:07:20.478Z,89.63
2024-02-13T16:09:55.702Z,91.77
2024-02-13T16:12:23.821Z,92.44
2024-02-13T16:14:52.133Z,92.79
2024-02-13T16:17:20.861Z,94.02
2024-02-13T16:19:49.036Z,94.63
2024-02-13T16:22:17.017Z,95.16
2024-02-13T16:24:45.050Z,94.75
2024-02-13T16:27:14.850Z,95.95
2024-02-13T16:29:43.141Z,96.43
2024-02-13T16:32:24.760Z,96.85
2024-02-13T16:35:01.393Z,97.04
2024-02-13T16:37:34.353Z,97.40
2024-02-13T16:40:04.467Z,99.62
2024-02-13T16:42:39.359Z,99.79
2024-02-13T16:45:09.305Z,99.50
2024-02-13T16:47:38.912Z,100.00
2024-02-13T16:50:13.260Z,100.00
2024-02-13T16:52:41.521Z,100.00
2024-02-13T16:55:10.319Z,100.00
2024-02-13T16:57:42.806Z,100.00
2024-02-13T17:00:12.902Z,100.00
2024-02-13T17:02:41.666Z,100.00
2024-02-13T17:05:12.921Z,100.00
2024-02-13T17:07:41.824Z,100.00
2024-02-13T17:10:11.010Z,100.00
2024-02-13T17:12:40.975Z,100.00
2024-02-13T17:15:11.140Z,100.00
2024-02-13T17:17:40.464Z,100.00
2024-02-13T17:20:12.488Z,100.00
2024-02-13T17:22:41.700Z,100.00
2024-02-13T17:25:10.937Z,100.00
2024-02-13T17:27:41.878Z,100.00
2024-02-13T17:30:12.700Z,100.00
2024-02-13T17:32:54.189Z,100.00
2024-02-13T17:35:25.009Z,100.00
2024-02-13T17:37:53.641Z,100.00
2024-02-13T17:40:21.736Z,100.00
2024-02-13T17:42:51.210Z,100.00
2024-02-13T17:45:19.847Z,100.00
2024-02-13T17:47:49.437Z,100.00
2024-02-13T17:50:17.665Z,100.00
2024-02-13T17:52:45.771Z,100.00
2024-02-13T17:55:17.606Z,100.00
2024-02-13T17:57:46.485Z,100.00
2024-02-13T18:00:21.206Z,100.00
2024-02-13T18:02:49.561Z,100.00
2024-02-13T18:05:17.870Z,100.00
2024-02-13T18:08:07.355Z,100.00
2024-02-13T18:10:36.005Z,100.00
2024-02-13T18:13:05.312Z,100.00
2024-02-13T18:15:34.674Z,100.00
2024-02-13T18:18:03.205Z,100.00
2024-02-13T18:20:31.574Z,100.00
2024-02-13T18:22:59.730Z,100.00
2024-02-13T18:25:27.763Z,100.00
2024-02-13T18:27:55.951Z,100.00
2024-02-13T18:30:25.540Z,100.00
2024-02-13T18:32:56.761Z,100.00
2024-02-13T18:35:24.985Z,100.00
2024-02-13T18:37:53.091Z,100.00
2024-02-13T18:40:21.904Z,100.00
2024-02-13T18:42:54.362Z,100.00
2024-02-13T18:45:23.341Z,100.00
2024-02-13T18:47:55.244Z,100.00
2024-02-13T18:50:24.808Z,100.00
2024-02-13T18:52:52.930Z,100.00
2024-02-13T18:55:22.108Z,100.00
2024-02-13T18:57:52.684Z,100.00
2024-02-13T19:00:20.837Z,100.00
2024-02-13T19:02:49.800Z,100.00
2024-02-13T19:05:18.100Z,100.00
2024-02-13T19:07:52.183Z,100.00
2024-02-13T19:10:21.021Z,100.00
2024-02-13T19:12:49.406Z,100.00
2024-02-13T19:15:20.040Z,100.00
2024-02-13T19:17:48.155Z,100.00
2024-02-13T19:20:17.163Z,100.00
2024-02-13T19:22:45.285Z,100.00
2024-02-13T19:25:14.812Z,100.00
2024-02-13T19:27:43.040Z,100.00
2024-02-13T19:30:12.285Z,100.00
2024-02-13T19:32:56.396Z,100.00
2024-02-13T19:35:24.561Z,100.00
2024-02-13T19:37:52.586Z,100.00
2024-02-13T19:40:22.072Z,100.00
2024-02-13T19:42:58.676Z,100.00
2024-02-13T19:45:26.840Z,100.00
2024-02-13T19:48:08.047Z,100.00
2024-02-13T19:50:56.075Z,100.00
2024-02-13T19:53:45.642Z,100.00
2024-02-13T19:56:35.037Z,100.00
2024-02-13T19:59:23.239Z,100.00
2024-02-13T20:02:17.040Z,100.00
2024-02-13T20:05:06.749Z,100.00
2024-02-13T20:07:54.838Z,100.00
2024-02-13T20:10:23.127Z,100.00
2024-02-13T20:12:52.626Z,100.00
2024-02-13T20:15:21.629Z,100.00
2024-02-13T20:17:49.819Z,100.00
2024-02-13T20:20:18.047Z,100.00
2024-02-13T20:22:47.655Z,100.00
2024-02-13T20:25:16.300Z,100.00
2024-02-13T20:27:45.196Z,100.00
2024-02-13T20:30:16.606Z,100.00
2024-02-13T20:32:47.794Z,100.00
2024-02-13T20:35:16.962Z,100.00
2024-02-13T20:37:45.023Z,100.00
2024-02-13T20:40:13.835Z,100.00
2024-02-13T20:42:49.889Z,100.00
2024-02-13T20:45:22.853Z,100.00
2024-02-13T20:47:53.273Z,100.00
2024-02-13T20:50:22.453Z,100.00
2024-02-13T20:52:50.686Z,100.00
2024-02-13T20:55:20.339Z,100.00
2024-02-13T20:57:49.443Z,100.00
2024-02-13T21:00:19.944Z,100.00
2024-02-13T21:02:48.831Z,100.00
2024-02-13T21:05:17.323Z,100.00
2024-02-13T21:07:50.737Z,100.00
2024-02-13T21:10:20.419Z,100.00
2024-02-13T21:12:51.774Z,100.00
2024-02-13T21:15:21.335Z,100.00
2024-02-13T21:18:07.118Z,100.00
2024-02-13T21:20:43.088Z,100.00
2024-02-13T21:23:29.361Z,100.00
2024-02-13T21:25:58.227Z,100.00
2024-02-13T21:28:27.987Z,100.00
2024-02-13T21:31:01.562Z,100.00
2024-02-13T21:33:29.738Z,100.00
2024-02-13T21:35:58.099Z,100.00
2024-02-13T21:38:26.190Z,100.00
2024-02-13T21:40:54.847Z,100.00
2024-02-13T21:43:22.927Z,100.00
2024-02-13T21:45:51.000Z,100.00
2024-02-13T21:48:20.672Z,100.00
2024-02-13T21:50:48.891Z,100.00
2024-02-13T21:53:17.071Z,100.00
2024-02-13T21:55:45.157Z,100.00
2024-02-13T21:58:17.627Z,100.00
2024-02-13T22:00:45.739Z,100.00
2024-02-13T22:03:13.889Z,100.00
2024-02-13T22:05:43.369Z,100.00
2024-02-13T22:08:11.441Z,100.00
2024-02-13T22:10:40.204Z,100.00
2024-02-13T22:13:09.755Z,100.00
2024-02-13T22:15:38.060Z,100.00
2024-02-13T22:18:06.590Z,100.00
2024-02-13T22:20:37.993Z,100.00
2024-02-13T22:23:09.779Z,100.00
2024-02-13T22:25:38.025Z,100.00
2024-02-13T22:28:07.324Z,100.00
2024-02-13T22:30:35.858Z,100.00
2024-02-13T22:33:18.102Z,100.00
2024-02-13T22:35:46.301Z,100.00
2024-02-13T22:38:15.907Z,100.00
2024-02-13T22:40:43.839Z,100.00
2024-02-13T22:43:12.043Z,100.00
2024-02-13T22:45:40.081Z,100.00
2024-02-13T22:48:08.541Z,100.00
2024-02-13T22:50:37.402Z,100.00
2024-02-13T22:53:06.014Z,100.00
2024-02-13T22:55:36.264Z,100.00
2024-02-13T22:58:04.329Z,100.00
2024-02-13T23:00:49.546Z,100.00
2024-02-13T23:03:18.438Z,100.00
2024-02-13T23:05:54.991Z,100.00
2024-02-13T23:08:23.505Z,100.00
2024-02-13T23:10:52.990Z,100.00
2024-02-13T23:13:20.907Z,100.00
2024-02-13T23:15:49.729Z,100.00
2024-02-13T23:18:19.034Z,100.00
2024-02-13T23:20:47.492Z,100.00
2024-02-13T23:23:16.494Z,100.00
2024-02-13T23:25:44.899Z,100.00
2024-02-13T23:28:15.306Z,100.00
2024-02-13T23:30:45.243Z,100.00
2024-02-13T23:33:14.966Z,100.00
2024-02-13T23:35:44.031Z,100.00
2024-02-13T23:38:12.042Z,100.00
2024-02-13T23:40:40.082Z,100.00
2024-02-13T23:43:08.131Z,100.00
2024-02-13T23:45:37.680Z,100.00
2024-02-13T23:48:06.162Z,100.00
2024-02-13T23:50:34.545Z,100.00
2024-02-13T23:53:02.662Z,100.00
2024-02-13T23:55:30.642Z,100.00
2024-02-13T23:57:58.601Z,100.00
